Latest Observation

108 Stations

10 Minute Data
as of 8/30/26 9:03 PM PDT
Station Date Time Temp (°F) RH (%) Dew Pt (°F) Wind Spd (mph) Wind Dir (°) Wind Gust (mph) Wind Gst Dir (°) Latest Rain (In) Soil Moist (%) Soil Temp (°F) Daily Rain (In) Daily Min Temp (°F) Daily Max Temp (°F) Daily Max Wind (mph)
Hobart Mills 8/30/26 2100 58.8   5.7 40   9 34.4   0.0 0.0   1.0 N | 0 0.0   2.5 WNW | 300 0.00 7.7   0.0 69.3   0.0 0.00 35.6   9.4 78.8   5.6 15.6   6.1
Prosser Dam 8/30/26 2100 62.1   4.1 40   3 37.6   1.8 1.3   0.1 E | 94 3.4   1.1 E | 89 0.00 5.4   0.1 64.4   0.5 0.00 32.3   13.1 77.6   4.1 19.9   6.2
West Incline Village 8/30/26 2100 60.4   5.6 43   2 37.8   6.2 2.1   0.9 NNE | 26 2.9   0.1 NE | 35 0.00 11.9   0.1 58.9   1.0 0.00 51.4   0.1 70.3   2.4 14.2   6.7
Incline Village (Fairview Blvd) 8/30/26 2100 62.1   5.0 48   10 42.2   10.6 0.0   2.1 N | 0 0.0   5.6 NE | 55 0.00 7.7   0.1 71.9   1.1 0.00 53.3   1.3 72.6   4.1 11.2   8.6
Incline Village (Diamond Peak) 8/30/26 2100 59.0   5.1 57   15 43.6   12.7 0.0   2.6 E | 89 0.6   5.3 E | 92 0.00 2.5   0.1 60.6   1.2 0.00 51.6   0.4 69.0   2.8 11.2   3.0
Incline Village (Mill Creek) 5/30/36 1610 74.5 37 46.5 0.5 SW | 236 1.7 SSW | 213 0.00 0.0 0.0 0.00 74.4 74.5 1.7
Incline Village (Lakeshore Blvd) 8/30/26 2100 58.0   2.9 65   12 46.3   8.3 0.0   0.6 N | 0 0.0   2.6 N | 4 0.00 18.4   3.4 63.6   0.6 0.00 43.0   7.4 72.1   4.0 8.7   8.2
Glenbrook 8/30/26 2100 59.7   1.2 59   4 45.3   0.8 1.7   1.5 ESE | 106 3.5   3.8 ESE | 104 0.00 42.8   0.2 59.7   0.4 0.00 44.5   7.1 73.8   4.6 11.4   7.0
Zephyr Cove 8/30/26 2100 63.3   4.3 50   3 44.6   5.7 0.1   0.0 NE | 42 1.2   2.4 NE | 42 0.00 2.8   0.0 70.8   2.2 0.00 50.3   4.5 72.6   0.1 7.8   1.5
Kingsbury Grade 8/30/26 2100 58.8   2.2 58   7 44.0   5.3 0.0   0.5 N | 0 0.0   2.1 NE | 53 0.00 2.3   0.1 70.5   0.7 0.00 46.8   4.9 73.8   2.8 12.8   6.6
South Daggett Pass (Ridge) 8/30/26 2100 58.4   5.7 58   2 43.8   6.2 1.7   0.8 WNW | 283 5.3   0.4 WSW | 258 0.00 2.2   0.0 63.7   1.0 0.00 51.3   1.8 70.4   4.7 15.9   8.9
Palomino Valley 8/30/26 2100 73.8   2.1 22   1 32.4   1.2 4.3   3.3 NNW | 331 8.6   2.7 WNW | 288 0.00 6.7   0.0 79.9   0.7 0.00 42.3   8.3 84.6   1.6 17.4   14.0
East Cold Springs 8/30/26 2100 68.8   5.8 28   3 34.1   2.6 7.3   1.3 W | 280 12.0   4.7 WNW | 286 0.00 1.6   0.0 72.5   0.4 0.00 49.1   4.1 80.8   2.8 19.4   8.2
Peavine 8/22/26 1700 81.6   1.5 27   0 44.0   1.5 22.7   10.4 SW | 225 48.4   26.2 SW | 220 0.00 - 53.4   0.0 0.00 69.4   2.1 87.6   2.1 48.4   26.2
West Verdi Peak 8/30/26 2200 65.4   6.7 29   9 32.5   0.6 1.5   1.3 SSW | 212 6.1   0.2 WSW | 255 0.00 6.6   0.0 71.4   0.3 0.00 47.0   8.0 78.7   5.1 14.5   11.5
West Verdi 8/30/26 2100 70.6   3.9 28   4 35.8   0.1 2.8   0.3 WNW | 288 6.6   0.6 WSW | 250 0.00 6.3   0.0 82.1   0.4 0.00 45.8   9.9 82.1   4.0 16.6   14.7
South Verdi 8/30/26 2100 69.1   4.7 32   2 37.8   2.3 12.6   5.1 SW | 215 16.8   4.4 SSW | 206 0.00 10.8   0.1 78.3   2.1 0.00 51.7   3.5 80.8   5.7 23.5   17.0
Northwest Reno 8/30/26 2100 72.6   5.0 24   7 34.0   1.8 3.1   10.5 NNW | 336 6.5   13.0 WNW | 302 0.00 25.3   0.0 80.2   1.1 0.00 55.3   1.0 81.3   3.5 20.2   19.8
North Lawton 8/28/26 1620 63.8   17.1 74   52 55.4   16.5 1.5   11.6 ESE | 121 5.1   19.0 SE | 124 0.00 - 78.2   0.0 0.05 59.2   7.5 71.9   13.3 20.4   4.6
West Reno (Mogul) 8/30/26 2100 72.3   4.8 29   2 38.2   2.3 6.5   4.2 SW | 234 17.0   2.7 WSW | 237 0.00 19.7   0.1 79.0   0.3 0.00 49.6   7.9 81.8   4.3 18.5   12.0
Caughlin (Hunter Lake Trail) 8/30/26 2100 70.6   4.3 31   3 38.9   5.9 5.8   4.6 W | 276 10.4   5.0 WNW | 294 0.00 16.6   0.1 75.4   0.4 0.00 53.6   3.3 81.6   5.2 21.6   14.7
ArrowCreek 8/30/26 2100 71.5   7.5 31   1 38.9   7.7 8.3   4.9 S | 180 11.9   5.7 S | 173 0.00 - 32.0   0.0 0.00 51.6   3.2 80.7   2.4 17.3   12.9
Tracy 8/16/26 2300 79.5   5.9 25   11 41.0   4.4 12.0   1.4 WSW | 239 16.6   0.7 WSW | 249 0.00 17.8   0.6 84.1   2.2 0.00 62.2   1.3 89.4   2.0 24.0   3.9
Virginia Highlands 8/30/26 2100 67.5   4.7 28   3 33.3   1.7 2.3   3.0 N | 4 5.7   3.8 NNE | 20 0.00 8.0   0.1 74.3   0.7 0.00 54.2   2.7 77.8   5.4 17.5   8.8
Virginia City 8/30/26 2100 66.2   3.8 30   5 33.6   0.7 6.6   0.8 N | 0 9.8   5.0 N | 0 0.00 4.9   0.0 76.3   0.0 0.00 54.9   2.0 75.6   3.5 18.1   9.8
Six Mile Canyon 8/30/26 2100 77.5   6.1 19   5 32.4   0.6 7.0   0.8 N | 1 11.6   3.1 N | 4 0.00 12.7   0.1 81.7   1.3 0.00 52.1   3.6 85.2   3.2 16.6   12.3
Mt Rose Highway 8/30/26 2100 63.0   5.1 37   11 36.5   12.8 3.7   9.4 S | 173 6.7   19.4 S | 182 0.00 7.4   0.1 62.4   1.0 0.00 49.8   2.8 73.2   5.4 15.5   10.6
Pleasant Valley 8/30/26 2100 72.5   7.8 28   3 37.3   3.9 1.2   1.6 NNW | 345 3.5   1.2 NE | 51 0.00 2.4   0.0 79.9   0.2 0.00 46.3   7.0 83.6   5.5 22.7   10.7
New Washoe City 8/30/26 2100 72.6   9.1 33   2 41.8   6.4 4.3   4.3 ESE | 110 7.1   7.1 ESE | 116 0.00 3.5   0.0 73.7   0.5 0.00 47.8   8.1 81.1   4.3 18.1   12.0
Franktown Creek 8/30/26 2100 67.8   0.6 39   10 41.9   7.9 0.9   2.7 WNW | 300 3.2   12.3 NW | 323 0.00 7.2   0.1 72.7   0.8 0.00 46.6   7.1 81.1   3.8 15.9   8.4
Musgrove Creek 8/30/26 2100 69.6   6.4 36   3 41.3   3.9 4.6   3.0 S | 183 9.4   3.5 S | 172 0.00 10.3   0.1 61.2   0.3 0.00 51.5   6.7 77.5   3.4 17.4   4.2
East Carson 11/23/24 0110 28.6   28.4 - - 4.7   11.0 SW | 220 14.7   10.1 SW | 219 0.02 - 50.9   0.1 0.02 -25.9   79.1 42.9   14.6 16.0   10.7
Kings Canyon 8/30/26 2100 69.9   3.0 38   2 43.0   3.9 2.2   10.1 SW | 222 4.8   16.3 SW | 234 0.00 4.2   0.0 71.9   0.8 0.00 49.1   5.1 79.8   3.6 20.5   2.6
Carson City (Voltaire Canyon) 8/30/26 2100 72.4   5.7 36   3 43.9   3.2 6.1   4.1 NW | 322 9.3   6.0 NNW | 341 0.00 2.8   0.1 78.9   0.9 0.00 55.7   1.8 81.3   3.1 18.6   13.7
Jacks Valley 8/30/26 2100 71.2   5.4 40   0 45.9   4.9 8.6   6.6 NW | 326 16.6   8.8 NNW | 334 0.00 4.7   0.1 84.1   2.8 0.00 49.8   4.0 80.5   3.0 20.1   8.6
Genoa 8/30/26 2100 74.0   7.6 37   3 45.9   4.9 3.2   2.8 WSW | 243 10.4   7.6 W | 266 0.00 2.4   0.2 76.1   2.6 0.00 48.6   5.5 83.4   3.4 14.2   2.1
South Genoa (Walleys Hot Springs) 8/30/26 2100 77.4   6.9 32   2 45.7   4.4 11.4   7.4 WSW | 247 18.3   4.2 WSW | 253 0.00 4.4   0.1 74.4   1.2 0.00 41.6   9.2 83.3   3.0 24.6   0.2
SW Gardnerville (HWY 88) 8/30/26 2100 67.4   0.8 47   14 46.2   9.7 3.8   0.0 SE | 142 7.0   1.7 S | 184 0.00 2.8   0.1 70.0   0.5 0.00 42.5   6.3 81.2   2.0 18.5   11.5
Sheridan 8/30/26 2100 72.0   4.0 36   4 43.7   6.1 4.8   1.4 SW | 215 6.5   1.2 SW | 217 0.00 1.1   0.0 76.8   0.4 0.00 45.4   7.7 82.4   2.8 20.9   8.3
Ruhenstroth 8/30/26 2100 70.1   0.5 38   10 43.1   8.4 3.4   7.2 ESE | 102 5.2   11.2 E | 91 0.00 7.2   0.1 83.0   2.8 0.00 50.4   2.1 82.0   2.4 19.5   7.7
Double Spring 8/30/26 2100 65.5   4.4 45   4 43.4   6.6 3.7   2.7 NW | 321 6.5   4.6 NW | 305 0.00 26.0   0.1 79.8   2.6 0.00 38.8   10.7 78.2   3.5 17.8   7.8
North Topaz Lake 8/30/26 2100 72.0   5.3 37   2 44.1   6.0 8.2   1.6 NW | 304 11.6   1.5 WNW | 302 0.00 7.7   0.2 79.3   3.2 0.00 57.9   0.8 80.7   3.1 19.9   5.3
Wild Oat Mountain 8/30/26 2100 68.8   3.8 38   1 42.3   4.1 8.5   6.1 NW | 316 14.3   5.7 NW | 304 0.00 6.0   0.0 80.1   3.7 0.00 54.1   2.2 78.0   2.4 19.6   9.7
Smith Valley 8/30/26 2100 73.1   1.5 34   7 43.3   6.9 4.4   4.9 N | 354 8.3   7.7 N | 354 0.00 2.9   0.1 82.1   1.1 0.00 50.0   4.2 82.8   0.6 13.0   16.8
Pine Grove Mountain 8/30/26 2100 59.8   3.5 25   9 23.9   4.1 5.4   5.0 N | 4 8.4   10.8 N | 1 0.00 7.4   0.1 70.6   1.2 0.00 51.4   0.6 69.6   0.7 17.9   13.7
Paradise Hill 8/30/26 2100 62.3   10.9 23   2 24.5   6.8 5.2   6.0 E | 92 7.2   6.6 ESE | 117 0.00 10.4   0.1 80.7   2.3 0.00 46.5   4.2 79.8   2.6 26.8   9.2
Winnemucca 8/30/26 2100 69.2   1.8 20   3 26.0   5.1 5.3   1.2 E | 95 6.5   2.7 E | 95 0.00 5.8   0.0 77.6   0.2 0.00 49.6   3.8 81.3   1.2 18.4   13.0
NE Elko 8/30/26 2100 66.2   2.9 18   12 21.2   15.2 3.0   0.4 NNE | 14 4.3   0.9 NNE | 17 0.00 5.8   0.1 77.9   0.2 0.00 45.2   1.5 80.8   0.1 21.7   5.1
North Elko 8/30/26 2100 67.2   2.6 18   14 21.8   16.7 8.7   1.8 NNW | 331 10.6   1.0 NW | 320 0.00 24.9   0.0 75.6   0.2 0.00 54.1   2.1 78.4   0.8 20.7   14.9
South Elko 8/30/26 2100 84.5   6.7 27   11 46.8   3.4 7.0   2.6 NNE | 27 8.4   1.6 NNE | 22 0.00 13.9   0.1 76.0   1.4 0.00 58.7   3.9 - 23.4   7.1
Lamoille 8/30/26 2100 62.6   5.8 27   3 28.6   7.4 6.4   0.3 SSE | 148 8.4   0.2 SE | 146 0.00 6.7   0.0 71.2   0.1 0.00 47.9   19.4 77.6   0.5 22.1   4.7
Reid Gardner Sub 8/30/26 2100 93.0   3.9 18   2 43.5   6.4 5.5   0.9 SSW | 206 8.6   1.7 SSW | 206 0.00 25.0   2.1 92.5   1.2 0.00 88.5   1.7 101.4   6.3 28.4   2.0
Corn Creek 8/30/26 2100 86.0   7.2 19   4 39.3   11.1 8.0   0.7 S | 190 10.3   3.2 S | 187 0.00 3.2   0.1 94.3   3.2 0.00 82.4   1.3 95.2   3.8 34.4   1.6
Lucky Strike 8/30/26 2100 75.4   4.8 20   8 31.5   13.0 7.7   0.1 WSW | 241 10.9   6.3 WSW | 240 0.00 3.2   0.1 85.8   5.0 0.00 73.5   5.3 83.4   4.6 29.6   2.6
Lower Angel Peak 8/30/26 2100 65.9   7.8 29   8 32.4   12.9 5.5   0.1 SSW | 195 7.1   5.5 SSW | 211 0.00 3.3   0.1 76.7   2.7 0.00 65.0   4.5 76.8   6.3 21.6   7.0
Angel Peak 8/30/26 2100 60.8   0.4 30   20 29.2   13.3 4.9   4.2 S | 190 10.6   9.1 S | 180 0.00 2.5   0.0 68.0   5.2 0.00 57.3   3.8 63.5   5.5 36.4   0.5
Upper Kyle Canyon 8/30/26 2100 65.2   0.0 37   8 38.2   4.8 8.7   5.8 W | 281 22.2   9.9 WNW | 282 0.00 7.8   0.0 77.4   0.9 0.00 61.2   0.2 70.9   2.5 36.1   0.9
Mt Charleston 8/30/26 2100 66.1   0.7 36   9 38.5   4.9 6.2   4.6 W | 264 13.2   9.1 W | 273 0.00 13.5   0.0 69.9   1.0 0.00 58.9   2.0 70.4   6.0 28.3   3.1
Mid Kyle Canyon 8/30/26 2100 70.8   2.8 30   6 38.3   7.5 4.6   0.5 W | 265 7.5   4.3 W | 270 0.00 5.8   0.1 76.6   3.7 0.00 66.3   5.7 76.5   5.4 29.7   0.6
Blue Diamond 8/30/26 2100 84.6   4.4 22   2 41.9   6.5 0.5   12.9 NW | 325 2.5   18.8 WSW | 238 0.00 1.3   0.1 92.4   2.2 0.00 81.6   1.0 92.1   4.7 26.7   0.8
Artesian Sub 8/30/26 2100 96.5   3.1 16   4 43.7   8.1 3.1   2.5 WSW | 244 5.2   6.3 WSW | 244 0.00 11.8   0.0 94.5   0.0 0.00 89.1   1.7 102.9   4.2 22.5   1.9
North Henderson 8/30/26 2100 96.8   2.7 16   4 43.6   8.6 3.4   6.2 SSE | 160 6.0   13.3 SE | 140 0.00 10.6   0.1 99.4   0.6 0.00 91.1   2.9 103.0   3.7 27.6   1.5
Sandy Valley 8/30/26 2100 82.0   7.5 25   3 42.8   9.8 3.9   0.2 SE | 145 6.8   1.7 SE | 143 0.00 8.8   0.3 97.6   2.1 0.00 80.1   4.4 95.1   4.2 26.1   0.4
Searchlight 8/30/26 2100 83.8   5.4 45   17 60.1   8.2 10.6   2.8 SSE | 158 17.4   4.5 SSE | 165 0.00 6.3   0.1 95.9   0.7 0.00 79.2   0.2 94.8   4.9 28.6   0.1
Laughlin 8/30/26 2100 96.5   7.7 36   14 65.0   6.9 10.8   8.5 SW | 226 20.9   15.9 SW | 220 0.00 4.7   0.0 105.0   0.6 0.00 90.0   3.2 109.6   4.9 39.0   8.7
31Mission Hills 8/30/26 2100 92.1   3.4 18   2 42.6   5.7 1.3   6.5 NNW | 336 3.2   10.6 W | 273 0.00 7.4   0.1 97.9   1.4 0.00 85.6   2.0 99.0   3.5 28.2   5.6
32 Enterprise Sierra Cliffs 8/30/26 2100 87.7   3.3 18   4 39.0   7.6 8.5   0.2 WSW | 237 10.7   2.6 SW | 229 0.00 1.5   0.1 95.2   4.3 0.00 82.9   2.9 94.4   4.5 31.9   5.1
29 Calico Basin 8/30/26 2100 85.9   2.1 20   3 40.3   5.4 6.5   9.5 SW | 229 8.9   14.3 SW | 216 0.00 2.7   0.2 90.9   3.3 0.00 81.6   2.3 90.8   4.8 32.8   0.9
28 Indian Springs 8/30/26 2100 87.4   2.0 15   6 34.7   10.4 4.7   3.0 S | 177 7.6   6.0 SSW | 192 0.00 4.9   0.1 93.7   1.1 0.00 82.8   3.3 96.1   0.9 34.0   1.2
30 Jean 8/30/26 2100 87.9   2.0 17   5 38.4   8.0 1.2   11.4 NW | 318 3.8   16.3 W | 270 0.00 5.6   0.2 94.9   2.6 0.00 76.5   1.8 94.8   3.5 32.4   0.1
VC Highlands NW 8/30/26 2100 66.3   5.8 26   3 30.0   2.3 3.9   1.8 N | 359 9.8   2.6 NNW | 342 0.00 1.7   0.1 74.5   1.3 0.00 52.1   4.5 75.8   3.6 17.8   7.7
Glenbrook-Spooner Summit 8/30/26 2100 56.3   1.8 62   10 43.3   6.1 4.0   3.5 W | 259 7.6   5.3 WSW | 247 0.00 8.0   0.1 73.8   2.2 0.00 41.6   6.7 70.4   3.4 18.1   7.3
Hobo Hot Springs 8/30/26 2100 73.3   4.9 34   1 43.5   4.8 6.1   1.1 WNW | 300 10.1   0.8 W | 281 0.00 1.1   0.0 74.9   0.3 0.00 40.4   10.8 83.5   3.3 17.0   12.4
Jack Valley Ranch 2 8/30/26 2100 70.5   4.8 38   0 43.9   4.3 2.0   3.0 NNW | 338 5.7   4.5 N | 354 0.00 2.2   0.0 77.6   0.4 0.00 49.4   5.5 81.1   4.2 18.5   5.2
Genoa North 2 8/30/26 2100 73.9   5.3 31   1 41.4   3.8 7.3   1.9 W | 274 17.4   3.5 WSW | 253 0.00 0.9   0.0 81.5   1.4 0.00 49.2   5.4 82.3   3.2 18.1   10.8
Mottsville 2 8/30/26 2100 72.8   4.1 34   6 42.6   8.4 4.9   2.5 NW | 318 7.9   2.6 NW | 313 0.00 1.2   0.1 75.6   0.1 0.00 43.9   7.3 82.6   3.2 31.9   1.4
Kingsbury Village 3 8/30/26 2100 55.0   2.6 59   6 40.8   5.2 1.7   1.5 N | 3 3.2   1.4 NNE | 19 0.00 3.2   0.0 66.0   0.9 0.00 45.8   3.9 69.1   3.4 10.2   6.1
Kingsbury-Benjamin Dr 2 8/30/26 2100 59.4   5.2 52   1 41.8   5.6 2.9   2.4 SW | 226 6.7   2.2 SSW | 209 0.00 3.6   0.2 75.7   2.3 0.00 48.3   2.9 70.3   2.4 14.4   8.1
Smith Valley-Wellington 8/30/26 2100 66.1   5.4 31   5 34.8   0.8 0.8   8.0 SW | 217 2.5   11.4 SSW | 208 0.00 3.7   0.0 82.7   0.6 0.00 46.2   9.1 83.2   1.4 13.3   15.9
Sheridan South 2 8/30/26 2100 70.8   6.2 36   3 42.8   7.6 1.3   2.8 SW | 215 3.6   4.3 SSW | 207 0.00 0.6   0.0 79.0   1.0 0.00 44.1   5.4 81.0   1.8 21.5   8.1
Silver Springs 8/30/26 2100 76.7   3.5 17   2 28.0   0.4 4.9   2.5 N | 10 8.3   5.2 N | 8 0.00 5.2   0.0 84.6   1.1 0.00 51.7   4.1 83.7   0.2 15.8   21.2
Fernley 8/30/26 2100 73.0   0.2 20   2 30.0   2.3 3.4   4.0 WSW | 256 5.3   3.8 WSW | 253 0.00 3.2   0.1 86.4   2.3 0.00 53.4   0.7 83.3   0.8 22.2   17.3
Spanish Springs 8/30/26 2100 73.3   3.5 21   4 30.7   1.9 1.9   2.5 NE | 56 5.1   3.0 ENE | 74 0.00 10.9   0.1 83.7   1.0 0.00 45.6   6.2 84.2   2.4 20.7   2.6
Suttcliffe South 2 8/30/26 2100 68.7   2.9 26   7 32.1   4.8 1.9   3.0 W | 280 5.5   0.5 WNW | 293 0.00 4.7   0.0 85.5   2.1 0.00 45.8   8.8 81.5   2.8 15.9   13.2
Lemmon Valley North 8/30/26 2100 72.3   8.3 22   4 31.0   3.2 4.4   0.6 WSW | 246 8.8   2.6 W | 261 0.00 2.1   0.0 73.9   0.4 0.00 35.9   9.0 80.5   2.0 18.1   9.9
Lemmon Valley NW 3 8/30/26 2100 72.5   6.2 21   3 30.5   1.8 6.3   1.1 NW | 309 10.7   2.4 NNW | 330 0.00 1.5   0.1 86.6   2.6 0.00 40.8   6.5 81.9   2.2 20.1   9.6
VC Highlands North 8/30/26 2100 67.7   5.2 25   2 30.2   2.3 0.4   4.0 N | 358 2.4   5.7 ENE | 77 0.00 5.4   0.2 83.0   4.5 0.00 40.5   9.7 77.5   4.5 16.6   12.6
Upper Voltaire Cyn 8/30/26 2100 68.9   8.1 35   7 40.1   2.8 5.1   1.5 NE | 51 11.9   2.4 NE | 42 0.00 1.2   0.1 77.7   1.5 0.00 57.0   0.1 77.3   3.2 18.9   11.0
Yerington NW 8/30/26 2100 72.8   4.3 21   12 30.8   7.3 3.1   4.8 NNW | 334 4.0   7.7 N | 0 0.00 7.4   0.1 80.6   2.0 0.00 47.7   4.2 82.0   1.2 11.9   20.4
Spanish Springs SW 8/30/26 2100 74.3   5.7 20   6 31.2   1.3 7.9   2.1 WNW | 298 16.3   5.8 WNW | 302 0.00 1.7   0.1 85.9   2.2 0.00 47.7   4.8 83.1   2.7 20.7   8.0
Cosgrave 2 8/27/26 0750 62.9   4.1 34   3 33.8   1.4 2.6   0.5 WSW | 246 4.1   1.0 W | 267 0.00 3.8   0.1 77.4   2.9 0.00 62.7   3.3 77.4   3.5 11.2   3.9
Winnemucca-Grass Valley 2 8/30/26 2100 66.0   9.1 21   3 25.0   4.4 6.7   3.5 NW | 315 7.9   7.2 NW | 314 0.00 8.3   0.0 75.4   1.5 0.00 40.4   14.8 80.8   0.3 15.8   11.6
Winnemucca-Dutch Flat Rd 8/30/26 2100 68.0   5.8 20   1 26.1   3.7 8.1   1.8 NW | 313 9.3   7.3 NW | 317 0.00 6.2   0.1 76.9   0.2 0.00 52.2   0.5 80.0   0.9 29.6   3.7
Paradise Valley 2 8/30/26 2100 65.1   2.8 21   2 24.2   4.6 5.1   1.5 NNW | 342 7.3   1.2 N | 0 0.00 13.2   0.0 79.1   1.6 0.00 42.0   8.8 79.4   0.0 20.6   13.4
Golconda 2 8/30/26 2100 65.7   9.5 22   4 26.0   2.9 6.6   3.8 W | 272 7.7   9.8 W | 272 0.00 2.1   0.1 86.0   3.6 0.00 51.7   4.0 80.6   0.9 26.8   4.8
Battle Mountain - South 8/30/26 2100 66.4   1.4 20   12 24.5   12.3 6.5   1.4 N | 1 8.3   0.2 N | 355 0.00 9.1   0.0 78.9   0.2 0.00 45.8   7.4 83.0   0.1 20.1   10.2
Geiger Summit 8/30/26 2100 63.7   4.8 100   0 63.7   4.8 1.3   1.5 NNE | 14 5.2   2.0 NNW | 347 0.00 6.7   0.2 75.1   1.8 0.00 52.1   2.9 74.0   4.3 14.3   8.8
Combs Canyon 3 8/30/26 2100 71.8   4.5 33   0 41.4   4.3 3.5   0.4 NNW | 339 6.1   0.6 ENE | 58 0.00 1.0   0.1 80.9   1.0 0.00 52.2   2.6 81.4   3.0 19.2   7.2
Clear Creek 8/30/26 2100 67.9   7.0 37   4 40.6   3.6 3.1   1.0 NNW | 343 7.7   3.7 N | 11 0.00 3.5   0.0 75.2   0.8 0.00 47.2   8.6 78.4   4.2 17.9   9.9
Eastlake 2 8/30/26 2100 70.8   3.4 35   4 41.9   5.9 5.3   0.3 WNW | 300 7.5   4.3 W | 273 0.00 3.5   0.0 75.7   0.0 0.00 45.0   12.0 80.6   3.0 22.7   4.6
Lovelock-Colado 2 8/30/26 2100 68.3   2.8 20   3 25.4   5.9 5.8   4.2 NNE | 30 8.7   4.1 NNE | 28 0.00 - 81.7   0.8 0.00 46.5   7.9 83.5   1.0 17.6   9.3
Spanish Springs NW 8/30/26 2100 73.7   3.4 21   2 31.8   0.7 0.5   4.0 NNW | 335 2.1   8.7 NNW | 347 0.00 13.1   0.0 75.8   0.6 0.00 45.2   6.2 84.0   1.8 19.1   6.8
Battle Mountain NW 8/30/26 2100 68.0   3.6 19   10 24.4   13.7 4.3   1.4 W | 273 6.6   1.7 W | 276 0.00 9.2   0.1 81.2   0.8 0.00 54.5   1.8 81.3   2.7 24.7   4.8
Austin 2 8/30/26 2000 59.5   5.0 20   8 18.6   12.0 3.8   8.8 S | 189 7.1   9.7 SSW | 193 0.00 2.5   0.1 78.6   2.0 0.00 40.2   6.7 76.7   0.1 23.6   7.2
Elko-Osino 8/30/26 2100 65.8   1.0 17   12 20.3   14.0 4.5   1.9 NE | 56 9.4   1.0 NNE | 29 0.00 1.6   0.0 82.8   0.2 0.00 44.8   20.8 80.7   1.6 22.6   8.8
Elko-Bill Fishpond 2 8/30/26 2100 58.9   8.8 25   3 22.9   10.8 7.5   2.3 SE | 137 8.6   1.0 SE | 136 0.00 3.6   0.0 74.0   2.3 0.00 46.4   19.1 78.1   0.7 19.0   5.3
Spring Creek SE 2 8/30/26 2100 65.3 19 22.0 6.5 E | 83 7.9 E | 80 0.00 0.5 74.7 0.00 46.4 80.6 21.0
Spring Creek NW 8/30/26 2100 70.4 15 21.0 6.3 NNW | 340 8.9 NNW | 335 0.00 2.3 75.6 0.00 56.1 79.1 19.4
Max     96.8 100 65.0 12.6 - 22.2 - 0.00 42.8 105.0 0.00 91.1 109.6 39.0
Avg     70.6 31 37.0 4.5 - 7.8 - 0.00 6.8 77.4 - - - -
Min     55.0 15 18.6 0.0 - 0.0 - 0.00 0.0 0.0 0.00 32.3 63.5 1.7